Mobile, AL (36608)

12:50 AM CDT on September 29, 2016 (GMT -0500)
Huntleigh Woods | | Change Station

Elev 226 ft 30.68 °N, 88.20 °W | Updated 187 days ago

Clear
Clear
69 °F
Feels Like 69 °F
N
3
Wind Variable Wind from NW
Gusts mph

Today
High -- | Low -- °F
--% Chance of Precip.
Yesterday
High -- | Low -- °F
Precip. -- in
Pressure 29.99 in
Visibility 10.0 miles
Clouds Clear
Dew Point 64 °F
Humidity 84%
Rainfall in
Snow Depth Not available.
6:45 AM 6:39 PM
Waning Crescent, 3% visible
METAR KMOB 290456Z AUTO 28004KT 10SM CLR 22/20 A3000 RMK AO2 SLP154 T02170200
Pressure 29.99 in
Visibility 10.0 miles
Clouds Clear
Dew Point 64 °F
Humidity 84%
Rainfall in
Snow Depth Not available.
6:45 AM 6:39 PM
Waning Crescent, 3% visible
METAR KMOB 290456Z AUTO 28004KT 10SM CLR 22/20 A3000 RMK AO2 SLP154 T02170200

10-Day Weather Forecast

Almanac

Astronomy

Sep. 29, 2016 Rise Set
Actual Time
Civil Twilight
Nautical Twilight
Astronomical Twilight
Moon
Length of Visible Light
Length of Day
Tomorrow will be .
, % of the Moon is Illuminated

Today's Extremes

State Highs State Lows

Community

WunderPhotos

Upload Photos

1,942,446 photos uploaded!

WunderBlog® & News

Nearby

Air Quality

  Air Quality AQ Index Pollutant
Not available.

Snow Depth

Station Depth Elevation

Earthquake Activity

City Distance Mag. Time & Date
Minimum magnitude displayed is 2.5.

Coastal Water Temperatures

Place Temperature

Stations

Nearby Weather Stations

Station Location Temp. Windchill Dew Point Humidity Wind Precip. Elev Updated Type
                   

Watches & Warnings

There are currently no watches in effect.